Terminal Aerodrome Forecast
Issued by NWS

Current Version | Previous Version | Text Only | Print | Product List | Glossary Off
Versions: 1 2 3 4 5 6 7 8 9 10 11 12 13 14 15 16 17 18 19 20 21 22 23 24

000
FTUS41 KRLX 270236 AAA
TAFCKB
TAF AMD
KCKB 270236Z 2703/2724 VRB03KT P6SM BKN100
      TEMPO 2704/2706 5SM -SHRA BR BKN050
     FM270600 00000KT 6SM BR BKN100
     FM271400 00000KT P6SM BKN050=

USA.gov is the U.S. government's official web portal to all federal, state and local government web resources and services.